sensor_id;sensor_type;location;lat;lon;timestamp;pressure;altitude;pressure_sealevel;temperature;humidity
66479;BME280;53294;47.912;13.526;2024-03-02T00:00:08;95208.25;;;7.40;87.05
66479;BME280;53294;47.912;13.526;2024-03-02T00:02:47;95209.53;;;7.42;86.71
66479;BME280;53294;47.912;13.526;2024-03-02T00:05:18;95204.69;;;7.44;86.77
66479;BME280;53294;47.912;13.526;2024-03-02T00:07:52;95203.09;;;7.43;86.29
66479;BME280;53294;47.912;13.526;2024-03-02T00:10:22;95205.47;;;7.45;85.98
66479;BME280;53294;47.912;13.526;2024-03-02T00:12:56;95203.88;;;7.44;85.87
66479;BME280;53294;47.912;13.526;2024-03-02T00:18:13;95211.91;;;7.44;85.69
66479;BME280;53294;47.912;13.526;2024-03-02T00:20:41;95206.06;;;7.42;85.67
66479;BME280;53294;47.912;13.526;2024-03-02T00:23:09;95205.88;;;7.38;86.29
66479;BME280;53294;47.912;13.526;2024-03-02T00:25:52;95206.50;;;7.35;86.48
66479;BME280;53294;47.912;13.526;2024-03-02T00:28:33;95209.47;;;7.33;86.43
66479;BME280;53294;47.912;13.526;2024-03-02T00:31:11;95215.41;;;7.30;86.31
66479;BME280;53294;47.912;13.526;2024-03-02T00:33:46;95218.38;;;7.29;86.02
66479;BME280;53294;47.912;13.526;2024-03-02T00:36:29;95213.41;;;7.22;86.13
66479;BME280;53294;47.912;13.526;2024-03-02T00:38:56;95213.00;;;7.15;86.69
66479;BME280;53294;47.912;13.526;2024-03-02T00:41:30;95212.59;;;7.08;86.75
66479;BME280;53294;47.912;13.526;2024-03-02T00:44:04;95214.28;;;7.04;87.03
66479;BME280;53294;47.912;13.526;2024-03-02T00:46:37;95216.16;;;7.03;86.94
66479;BME280;53294;47.912;13.526;2024-03-02T00:49:05;95210.72;;;6.94;86.70
66479;BME280;53294;47.912;13.526;2024-03-02T00:51:39;95213.97;;;6.91;86.63
66479;BME280;53294;47.912;13.526;2024-03-02T00:54:09;95215.66;;;6.87;86.49
66479;BME280;53294;47.912;13.526;2024-03-02T00:56:37;95215.16;;;6.85;86.32
66479;BME280;53294;47.912;13.526;2024-03-02T00:59:04;95216.31;;;6.79;86.39
66479;BME280;53294;47.912;13.526;2024-03-02T01:01:30;95205.75;;;6.74;86.39
66479;BME280;53294;47.912;13.526;2024-03-02T01:03:57;95210.63;;;6.39;86.65
66479;BME280;53294;47.912;13.526;2024-03-02T01:06:24;95207.91;;;6.25;87.62
66479;BME280;53294;47.912;13.526;2024-03-02T01:08:51;95212.00;;;6.17;87.78
66479;BME280;53294;47.912;13.526;2024-03-02T01:11:19;95203.78;;;6.14;87.35
66479;BME280;53294;47.912;13.526;2024-03-02T01:13:49;95208.63;;;6.11;87.15
66479;BME280;53294;47.912;13.526;2024-03-02T01:16:16;95208.19;;;6.04;87.38
66479;BME280;53294;47.912;13.526;2024-03-02T01:18:43;95213.31;;;6.01;86.43
66479;BME280;53294;47.912;13.526;2024-03-02T01:21:10;95217.06;;;6.00;85.94
66479;BME280;53294;47.912;13.526;2024-03-02T01:23:37;95204.94;;;5.88;86.44
66479;BME280;53294;47.912;13.526;2024-03-02T01:26:04;95208.03;;;5.77;87.28
66479;BME280;53294;47.912;13.526;2024-03-02T01:28:31;95207.81;;;5.73;86.97
66479;BME280;53294;47.912;13.526;2024-03-02T01:30:57;95212.16;;;5.69;86.75
66479;BME280;53294;47.912;13.526;2024-03-02T01:33:24;95215.38;;;5.66;86.47
66479;BME280;53294;47.912;13.526;2024-03-02T01:35:51;95215.78;;;5.54;86.54
66479;BME280;53294;47.912;13.526;2024-03-02T01:38:18;95215.38;;;5.22;88.03
66479;BME280;53294;47.912;13.526;2024-03-02T01:40:44;95212.25;;;5.15;89.08
66479;BME280;53294;47.912;13.526;2024-03-02T01:43:11;95209.00;;;5.24;88.70
66479;BME280;53294;47.912;13.526;2024-03-02T01:45:38;95215.81;;;5.30;88.29
66479;BME280;53294;47.912;13.526;2024-03-02T01:48:06;95214.25;;;5.29;87.86
66479;BME280;53294;47.912;13.526;2024-03-02T01:50:34;95207.50;;;5.36;86.76
66479;BME280;53294;47.912;13.526;2024-03-02T01:53:01;95209.91;;;5.33;86.06
66479;BME280;53294;47.912;13.526;2024-03-02T01:55:29;95209.56;;;5.20;86.21
66479;BME280;53294;47.912;13.526;2024-03-02T01:57:57;95201.84;;;5.19;85.96
66479;BME280;53294;47.912;13.526;2024-03-02T02:00:25;95201.09;;;5.13;85.73
66479;BME280;53294;47.912;13.526;2024-03-02T02:02:53;95202.19;;;5.12;85.86
66479;BME280;53294;47.912;13.526;2024-03-02T02:05:20;95197.94;;;5.11;85.44
66479;BME280;53294;47.912;13.526;2024-03-02T02:07:47;95186.47;;;5.11;84.84
66479;BME280;53294;47.912;13.526;2024-03-02T02:10:14;95192.63;;;5.11;84.40
66479;BME280;53294;47.912;13.526;2024-03-02T02:12:41;95186.38;;;4.97;84.30
66479;BME280;53294;47.912;13.526;2024-03-02T02:17:49;95190.47;;;4.01;91.13
66479;BME280;53294;47.912;13.526;2024-03-02T02:20:16;95193.56;;;4.08;90.90
66479;BME280;53294;47.912;13.526;2024-03-02T02:23:00;95192.44;;;4.20;90.04
66479;BME280;53294;47.912;13.526;2024-03-02T02:25:28;95189.69;;;4.30;88.33
66479;BME280;53294;47.912;13.526;2024-03-02T02:27:56;95182.69;;;4.39;87.34
66479;BME280;53294;47.912;13.526;2024-03-02T02:30:29;95186.94;;;4.40;86.52
66479;BME280;53294;47.912;13.526;2024-03-02T02:32:57;95187.44;;;4.42;86.00
66479;BME280;53294;47.912;13.526;2024-03-02T02:35:24;95185.56;;;4.48;86.06
66479;BME280;53294;47.912;13.526;2024-03-02T02:37:52;95188.50;;;4.46;86.67
66479;BME280;53294;47.912;13.526;2024-03-02T02:40:20;95180.50;;;4.46;87.11
66479;BME280;53294;47.912;13.526;2024-03-02T02:42:47;95182.97;;;4.38;87.47
66479;BME280;53294;47.912;13.526;2024-03-02T02:45:15;95175.53;;;4.40;87.73
66479;BME280;53294;47.912;13.526;2024-03-02T02:47:43;95178.97;;;4.40;88.89
66479;BME280;53294;47.912;13.526;2024-03-02T02:50:11;95179.53;;;4.37;90.16
66479;BME280;53294;47.912;13.526;2024-03-02T02:52:40;95175.25;;;4.41;90.53
66479;BME280;53294;47.912;13.526;2024-03-02T02:55:09;95174.69;;;4.44;90.69
66479;BME280;53294;47.912;13.526;2024-03-02T02:57:37;95173.09;;;4.43;91.13
66479;BME280;53294;47.912;13.526;2024-03-02T03:00:13;95173.31;;;4.47;91.12
66479;BME280;53294;47.912;13.526;2024-03-02T03:02:44;95176.78;;;4.47;91.58
66479;BME280;53294;47.912;13.526;2024-03-02T03:05:13;95173.78;;;4.54;92.56
66479;BME280;53294;47.912;13.526;2024-03-02T03:07:41;95170.09;;;4.50;91.28
66479;BME280;53294;47.912;13.526;2024-03-02T03:10:08;95173.78;;;4.54;91.12
66479;BME280;53294;47.912;13.526;2024-03-02T03:12:35;95173.31;;;4.47;92.05
66479;BME280;53294;47.912;13.526;2024-03-02T03:15:03;95170.84;;;4.56;92.75
66479;BME280;53294;47.912;13.526;2024-03-02T03:17:31;95176.53;;;4.73;92.83
66479;BME280;53294;47.912;13.526;2024-03-02T03:19:58;95171.66;;;4.80;93.97
66479;BME280;53294;47.912;13.526;2024-03-02T03:22:25;95166.22;;;4.91;95.51
66479;BME280;53294;47.912;13.526;2024-03-02T03:24:51;95165.09;;;4.97;95.15
66479;BME280;53294;47.912;13.526;2024-03-02T03:27:19;95164.66;;;4.90;93.99
66479;BME280;53294;47.912;13.526;2024-03-02T03:29:46;95160.91;;;4.91;93.63
66479;BME280;53294;47.912;13.526;2024-03-02T03:32:13;95163.53;;;4.96;92.71
66479;BME280;53294;47.912;13.526;2024-03-02T03:34:40;95163.94;;;5.03;91.63
66479;BME280;53294;47.912;13.526;2024-03-02T03:37:07;95166.00;;;5.11;91.58
66479;BME280;53294;47.912;13.526;2024-03-02T03:39:34;95157.94;;;5.16;91.34
66479;BME280;53294;47.912;13.526;2024-03-02T03:42:03;95158.72;;;5.17;90.61
66479;BME280;53294;47.912;13.526;2024-03-02T03:44:30;95159.75;;;5.21;89.73
66479;BME280;53294;47.912;13.526;2024-03-02T03:46:56;95153.84;;;5.24;88.90
66479;BME280;53294;47.912;13.526;2024-03-02T03:49:23;95158.91;;;5.26;88.39
66479;BME280;53294;47.912;13.526;2024-03-02T03:51:50;95154.63;;;5.25;88.79
66479;BME280;53294;47.912;13.526;2024-03-02T03:54:17;95154.06;;;5.28;89.50
66479;BME280;53294;47.912;13.526;2024-03-02T03:56:44;95148.16;;;5.31;89.47
66479;BME280;53294;47.912;13.526;2024-03-02T03:59:10;95148.66;;;5.33;89.56
66479;BME280;53294;47.912;13.526;2024-03-02T04:01:37;95148.09;;;5.36;90.31
66479;BME280;53294;47.912;13.526;2024-03-02T04:04:04;95149.19;;;5.35;89.82
66479;BME280;53294;47.912;13.526;2024-03-02T04:06:31;95141.69;;;5.37;89.88
66479;BME280;53294;47.912;13.526;2024-03-02T04:08:59;95151.78;;;5.40;89.54
66479;BME280;53294;47.912;13.526;2024-03-02T04:11:25;95142.16;;;5.44;89.47
66479;BME280;53294;47.912;13.526;2024-03-02T04:13:52;95143.13;;;5.48;90.02
66479;BME280;53294;47.912;13.526;2024-03-02T04:16:23;95141.78;;;5.51;89.81
66479;BME280;53294;47.912;13.526;2024-03-02T04:18:49;95143.38;;;5.52;89.63
66479;BME280;53294;47.912;13.526;2024-03-02T04:21:16;95141.00;;;5.50;90.09
66479;BME280;53294;47.912;13.526;2024-03-02T04:23:43;95148.41;;;5.53;90.46
66479;BME280;53294;47.912;13.526;2024-03-02T04:26:10;95152.63;;;5.54;90.37
66479;BME280;53294;47.912;13.526;2024-03-02T04:28:36;95146.75;;;5.57;90.16
66479;BME280;53294;47.912;13.526;2024-03-02T04:31:03;95151.50;;;5.61;90.47
66479;BME280;53294;47.912;13.526;2024-03-02T04:33:30;95145.19;;;5.56;90.63
66479;BME280;53294;47.912;13.526;2024-03-02T04:35:57;95143.41;;;5.47;90.88
66479;BME280;53294;47.912;13.526;2024-03-02T04:38:24;95144.28;;;5.42;91.54
66479;BME280;53294;47.912;13.526;2024-03-02T04:40:50;95144.00;;;5.44;92.01
66479;BME280;53294;47.912;13.526;2024-03-02T04:43:17;95141.00;;;5.50;91.86
66479;BME280;53294;47.912;13.526;2024-03-02T04:45:45;95152.78;;;5.44;92.83
66479;BME280;53294;47.912;13.526;2024-03-02T04:48:12;95161.00;;;5.48;92.80
66479;BME280;53294;47.912;13.526;2024-03-02T04:50:40;95152.16;;;5.52;92.41
66479;BME280;53294;47.912;13.526;2024-03-02T04:53:07;95152.06;;;5.57;92.22
66479;BME280;53294;47.912;13.526;2024-03-02T04:55:34;95150.50;;;5.56;92.30
66479;BME280;53294;47.912;13.526;2024-03-02T04:58:01;95146.69;;;5.63;92.38
66479;BME280;53294;47.912;13.526;2024-03-02T05:00:28;95148.78;;;5.66;92.48
66479;BME280;53294;47.912;13.526;2024-03-02T05:02:55;95148.19;;;5.69;92.62
66479;BME280;53294;47.912;13.526;2024-03-02T05:05:21;95148.19;;;5.69;92.26
66479;BME280;53294;47.912;13.526;2024-03-02T05:07:48;95148.78;;;5.66;92.47
66479;BME280;53294;47.912;13.526;2024-03-02T05:10:15;95149.84;;;5.65;92.50
66479;BME280;53294;47.912;13.526;2024-03-02T05:12:42;95148.47;;;5.67;92.74
66479;BME280;53294;47.912;13.526;2024-03-02T05:15:10;95146.31;;;5.69;92.68
66479;BME280;53294;47.912;13.526;2024-03-02T05:17:37;95142.28;;;5.72;92.20
66479;BME280;53294;47.912;13.526;2024-03-02T05:20:08;95149.75;;;5.70;92.22
66479;BME280;53294;47.912;13.526;2024-03-02T05:22:35;95146.41;;;5.64;92.49
66479;BME280;53294;47.912;13.526;2024-03-02T05:25:06;95152.50;;;5.65;92.43
66479;BME280;53294;47.912;13.526;2024-03-02T05:27:33;95149.25;;;5.68;92.11
66479;BME280;53294;47.912;13.526;2024-03-02T05:30:00;95150.91;;;5.64;91.79
66479;BME280;53294;47.912;13.526;2024-03-02T05:32:28;95148.47;;;5.67;92.08
66479;BME280;53294;47.912;13.526;2024-03-02T05:34:54;95144.88;;;5.58;92.26
66479;BME280;53294;47.912;13.526;2024-03-02T05:37:21;95163.44;;;5.44;92.27
66479;BME280;53294;47.912;13.526;2024-03-02T05:39:48;95168.13;;;5.33;92.54
66479;BME280;53294;47.912;13.526;2024-03-02T05:42:15;95164.16;;;5.31;92.19
66479;BME280;53294;47.912;13.526;2024-03-02T05:44:43;95178.53;;;5.30;91.86
66479;BME280;53294;47.912;13.526;2024-03-02T05:47:10;95175.88;;;5.30;91.79
66479;BME280;53294;47.912;13.526;2024-03-02T05:49:36;95177.53;;;5.26;91.59
66479;BME280;53294;47.912;13.526;2024-03-02T05:52:03;95185.53;;;5.26;92.07
66479;BME280;53294;47.912;13.526;2024-03-02T05:54:30;95181.47;;;5.28;92.05
66479;BME280;53294;47.912;13.526;2024-03-02T05:56:57;95190.75;;;5.12;92.47
66479;BME280;53294;47.912;13.526;2024-03-02T05:59:43;95192.09;;;5.09;93.32
66479;BME280;53294;47.912;13.526;2024-03-02T06:02:12;95195.31;;;5.06;93.48
66479;BME280;53294;47.912;13.526;2024-03-02T06:04:39;95197.03;;;4.97;93.25
66479;BME280;53294;47.912;13.526;2024-03-02T06:07:06;95191.00;;;4.86;94.02
66479;BME280;53294;47.912;13.526;2024-03-02T06:09:33;95198.13;;;4.96;94.19
66479;BME280;53294;47.912;13.526;2024-03-02T06:12:00;95202.34;;;4.97;93.73
66479;BME280;53294;47.912;13.526;2024-03-02T06:14:26;95202.91;;;4.94;94.71
66479;BME280;53294;47.912;13.526;2024-03-02T06:16:53;95200.81;;;4.91;93.64
66479;BME280;53294;47.912;13.526;2024-03-02T06:19:20;95205.72;;;4.78;93.89
66479;BME280;53294;47.912;13.526;2024-03-02T06:21:47;95207.09;;;4.76;94.82
66479;BME280;53294;47.912;13.526;2024-03-02T06:24:13;95201.44;;;4.82;94.56
66479;BME280;53294;47.912;13.526;2024-03-02T06:26:40;95205.16;;;4.81;94.43
66479;BME280;53294;47.912;13.526;2024-03-02T06:29:07;95205.50;;;4.75;94.73
66479;BME280;53294;47.912;13.526;2024-03-02T06:31:34;95203.59;;;4.80;94.58
66479;BME280;53294;47.912;13.526;2024-03-02T06:34:01;95216.75;;;4.96;93.67
66479;BME280;53294;47.912;13.526;2024-03-02T06:36:30;95217.75;;;5.00;93.03
66479;BME280;53294;47.912;13.526;2024-03-02T06:38:57;95217.75;;;5.00;92.31
66479;BME280;53294;47.912;13.526;2024-03-02T06:41:23;95217.53;;;4.96;92.52
66479;BME280;53294;47.912;13.526;2024-03-02T06:43:50;95225.22;;;4.98;92.78
66479;BME280;53294;47.912;13.526;2024-03-02T06:46:20;95229.34;;;5.09;92.80
66479;BME280;53294;47.912;13.526;2024-03-02T06:48:47;95237.25;;;5.19;92.45
66479;BME280;53294;47.912;13.526;2024-03-02T06:51:14;95237.91;;;5.06;93.01
66479;BME280;53294;47.912;13.526;2024-03-02T06:53:42;95238.03;;;4.96;93.86
66479;BME280;53294;47.912;13.526;2024-03-02T06:56:09;95247.31;;;4.98;94.20
66479;BME280;53294;47.912;13.526;2024-03-02T06:58:36;95246.94;;;5.10;93.85
66479;BME280;53294;47.912;13.526;2024-03-02T07:01:02;95255.09;;;5.19;93.93
66479;BME280;53294;47.912;13.526;2024-03-02T07:03:29;95257.75;;;5.19;93.15
66479;BME280;53294;47.912;13.526;2024-03-02T07:05:56;95268.63;;;5.22;93.68
66479;BME280;53294;47.912;13.526;2024-03-02T07:08:23;95278.38;;;5.32;93.28
66479;BME280;53294;47.912;13.526;2024-03-02T07:10:50;95271.63;;;5.40;93.23
66479;BME280;53294;47.912;13.526;2024-03-02T07:13:17;95276.00;;;5.55;91.99
66479;BME280;53294;47.912;13.526;2024-03-02T07:15:43;95277.56;;;5.56;91.85
66479;BME280;53294;47.912;13.526;2024-03-02T07:18:36;95280.97;;;5.62;91.88
66479;BME280;53294;47.912;13.526;2024-03-02T07:21:11;95278.22;;;5.67;92.03
66479;BME280;53294;47.912;13.526;2024-03-02T07:23:38;95290.13;;;5.74;91.15
66479;BME280;53294;47.912;13.526;2024-03-02T07:26:05;95291.50;;;5.72;91.47
66479;BME280;53294;47.912;13.526;2024-03-02T07:28:35;95295.25;;;5.71;91.60
66479;BME280;53294;47.912;13.526;2024-03-02T07:31:03;95305.91;;;5.71;92.35
66479;BME280;53294;47.912;13.526;2024-03-02T07:33:31;95306.94;;;5.75;92.19
66479;BME280;53294;47.912;13.526;2024-03-02T07:35:58;95309.63;;;5.70;92.51
66479;BME280;53294;47.912;13.526;2024-03-02T07:38:30;95308.06;;;5.69;92.94
66479;BME280;53294;47.912;13.526;2024-03-02T07:40:57;95316.66;;;5.61;93.61
66479;BME280;53294;47.912;13.526;2024-03-02T07:43:24;95322.97;;;5.70;93.75
66479;BME280;53294;47.912;13.526;2024-03-02T07:45:51;95318.88;;;5.78;93.41
66479;BME280;53294;47.912;13.526;2024-03-02T07:48:18;95319.03;;;5.86;92.96
66479;BME280;53294;47.912;13.526;2024-03-02T07:50:45;95323.94;;;6.03;92.12
66479;BME280;53294;47.912;13.526;2024-03-02T07:53:11;95327.31;;;6.09;91.57
66479;BME280;53294;47.912;13.526;2024-03-02T07:55:38;95323.84;;;6.27;90.88
66479;BME280;53294;47.912;13.526;2024-03-02T07:58:05;95323.63;;;6.43;90.08
66479;BME280;53294;47.912;13.526;2024-03-02T08:00:32;95318.06;;;6.58;88.77
66479;BME280;53294;47.912;13.526;2024-03-02T08:03:00;95311.44;;;6.75;87.86
66479;BME280;53294;47.912;13.526;2024-03-02T08:05:27;95308.50;;;6.90;86.94
66479;BME280;53294;47.912;13.526;2024-03-02T08:07:54;95310.94;;;7.06;86.34
66479;BME280;53294;47.912;13.526;2024-03-02T08:10:21;95313.72;;;7.28;85.21
66479;BME280;53294;47.912;13.526;2024-03-02T08:12:47;95318.78;;;7.44;84.14
66479;BME280;53294;47.912;13.526;2024-03-02T08:15:14;95319.47;;;7.35;83.29
66479;BME280;53294;47.912;13.526;2024-03-02T08:17:41;95310.97;;;7.33;83.37
66479;BME280;53294;47.912;13.526;2024-03-02T08:20:12;95316.59;;;6.85;85.82
66479;BME280;53294;47.912;13.526;2024-03-02T08:22:39;95325.38;;;6.34;88.55
66479;BME280;53294;47.912;13.526;2024-03-02T08:25:07;95321.75;;;6.05;91.00
66479;BME280;53294;47.912;13.526;2024-03-02T08:27:34;95317.94;;;6.31;90.07
66479;BME280;53294;47.912;13.526;2024-03-02T08:30:02;95316.66;;;6.47;88.04
66479;BME280;53294;47.912;13.526;2024-03-02T08:32:33;95321.72;;;6.29;88.84
66479;BME280;53294;47.912;13.526;2024-03-02T08:34:59;95332.78;;;6.37;88.47
66479;BME280;53294;47.912;13.526;2024-03-02T08:37:26;95324.75;;;6.42;89.01
66479;BME280;53294;47.912;13.526;2024-03-02T08:39:53;95321.50;;;6.45;88.50
66479;BME280;53294;47.912;13.526;2024-03-02T08:42:20;95320.47;;;6.41;89.27
66479;BME280;53294;47.912;13.526;2024-03-02T08:44:47;95317.94;;;6.69;88.20
66479;BME280;53294;47.912;13.526;2024-03-02T08:47:14;95310.66;;;6.88;85.38
66479;BME280;53294;47.912;13.526;2024-03-02T08:49:41;95313.84;;;6.90;85.29
66479;BME280;53294;47.912;13.526;2024-03-02T08:52:08;95316.16;;;7.11;85.30
66479;BME280;53294;47.912;13.526;2024-03-02T08:54:35;95309.94;;;7.15;82.71
66479;BME280;53294;47.912;13.526;2024-03-02T08:57:02;95308.97;;;7.39;82.28
66479;BME280;53294;47.912;13.526;2024-03-02T08:59:29;95304.84;;;7.75;80.25
66479;BME280;53294;47.912;13.526;2024-03-02T09:01:56;95298.66;;;8.16;78.40
66479;BME280;53294;47.912;13.526;2024-03-02T09:04:22;95302.63;;;8.55;76.81
66479;BME280;53294;47.912;13.526;2024-03-02T09:06:53;95297.22;;;9.54;74.05
66479;BME280;53294;47.912;13.526;2024-03-02T09:09:20;95286.81;;;10.98;70.98
66479;BME280;53294;47.912;13.526;2024-03-02T09:11:47;95272.03;;;11.68;63.57
66479;BME280;53294;47.912;13.526;2024-03-02T09:14:14;95272.66;;;12.25;64.13
66479;BME280;53294;47.912;13.526;2024-03-02T09:16:42;95270.50;;;12.39;60.20
66479;BME280;53294;47.912;13.526;2024-03-02T09:19:09;95260.88;;;13.05;58.46
66479;BME280;53294;47.912;13.526;2024-03-02T09:21:37;95265.94;;;13.90;57.15
66479;BME280;53294;47.912;13.526;2024-03-02T09:24:04;95259.03;;;14.29;55.16
66479;BME280;53294;47.912;13.526;2024-03-02T09:26:33;95259.28;;;14.52;52.13
66479;BME280;53294;47.912;13.526;2024-03-02T09:29:00;95265.66;;;14.32;53.06
66479;BME280;53294;47.912;13.526;2024-03-02T09:31:26;95267.84;;;13.77;53.97
66479;BME280;53294;47.912;13.526;2024-03-02T09:33:53;95263.78;;;13.00;56.60
66479;BME280;53294;47.912;13.526;2024-03-02T09:36:22;95262.22;;;12.45;58.29
66479;BME280;53294;47.912;13.526;2024-03-02T09:38:49;95267.47;;;12.20;59.72
66479;BME280;53294;47.912;13.526;2024-03-02T09:41:16;95272.25;;;12.14;59.93
66479;BME280;53294;47.912;13.526;2024-03-02T09:43:43;95265.50;;;12.29;59.12
66479;BME280;53294;47.912;13.526;2024-03-02T09:46:10;95258.75;;;12.23;58.85
66479;BME280;53294;47.912;13.526;2024-03-02T09:48:37;95260.72;;;12.14;58.52
66479;BME280;53294;47.912;13.526;2024-03-02T09:51:05;95260.50;;;11.98;58.34
66479;BME280;53294;47.912;13.526;2024-03-02T09:53:33;95253.09;;;12.16;58.75
66479;BME280;53294;47.912;13.526;2024-03-02T09:56:00;95260.03;;;11.96;58.50
66479;BME280;53294;47.912;13.526;2024-03-02T09:58:28;95246.38;;;12.64;57.57
66479;BME280;53294;47.912;13.526;2024-03-02T10:00:54;95238.28;;;13.43;54.69
66479;BME280;53294;47.912;13.526;2024-03-02T10:03:23;95231.88;;;14.38;50.83
66479;BME280;53294;47.912;13.526;2024-03-02T10:05:53;95225.03;;;15.13;50.38
66479;BME280;53294;47.912;13.526;2024-03-02T10:08:20;95214.44;;;16.04;47.96
66479;BME280;53294;47.912;13.526;2024-03-02T10:10:46;95214.03;;;16.60;47.41
66479;BME280;53294;47.912;13.526;2024-03-02T10:13:13;95215.94;;;17.18;44.82
66479;BME280;53294;47.912;13.526;2024-03-02T10:15:41;95204.59;;;17.36;43.56
66479;BME280;53294;47.912;13.526;2024-03-02T10:18:10;95199.25;;;17.66;42.15
66479;BME280;53294;47.912;13.526;2024-03-02T10:20:39;95205.63;;;17.77;42.85
66479;BME280;53294;47.912;13.526;2024-03-02T10:23:13;95202.09;;;18.00;42.79
66479;BME280;53294;47.912;13.526;2024-03-02T10:25:40;95201.94;;;17.89;41.60
66479;BME280;53294;47.912;13.526;2024-03-02T10:28:20;95199.28;;;17.43;43.42
66479;BME280;53294;47.912;13.526;2024-03-02T10:30:50;95195.53;;;17.05;43.50
66479;BME280;53294;47.912;13.526;2024-03-02T10:33:19;95203.63;;;16.43;44.73
66479;BME280;53294;47.912;13.526;2024-03-02T10:35:48;95199.03;;;16.08;47.08
66479;BME280;53294;47.912;13.526;2024-03-02T10:38:17;95185.59;;;16.31;46.74
66479;BME280;53294;47.912;13.526;2024-03-02T10:40:47;95181.09;;;16.39;49.10
66479;BME280;53294;47.912;13.526;2024-03-02T10:43:14;95179.44;;;17.16;46.75
66479;BME280;53294;47.912;13.526;2024-03-02T10:45:42;95175.47;;;17.10;43.69
66479;BME280;53294;47.912;13.526;2024-03-02T10:48:09;95169.25;;;16.66;45.89
66479;BME280;53294;47.912;13.526;2024-03-02T10:50:36;95171.03;;;17.48;45.19
66479;BME280;53294;47.912;13.526;2024-03-02T10:53:03;95165.09;;;17.88;43.69
66479;BME280;53294;47.912;13.526;2024-03-02T10:55:32;95162.69;;;17.60;42.26
66479;BME280;53294;47.912;13.526;2024-03-02T10:58:00;95159.78;;;17.72;43.96
66479;BME280;53294;47.912;13.526;2024-03-02T11:00:33;95159.06;;;18.02;42.80
66479;BME280;53294;47.912;13.526;2024-03-02T11:03:11;95145.41;;;17.72;43.26
66479;BME280;53294;47.912;13.526;2024-03-02T11:05:41;95153.50;;;17.91;42.00
66479;BME280;53294;47.912;13.526;2024-03-02T11:08:14;95145.50;;;18.36;41.20
66479;BME280;53294;47.912;13.526;2024-03-02T11:10:49;95133.44;;;18.68;42.07
66479;BME280;53294;47.912;13.526;2024-03-02T11:13:22;95126.00;;;19.02;40.84
66479;BME280;53294;47.912;13.526;2024-03-02T11:15:54;95117.69;;;19.29;40.07
66479;BME280;53294;47.912;13.526;2024-03-02T11:18:22;95121.91;;;19.23;40.43
66479;BME280;53294;47.912;13.526;2024-03-02T11:20:49;95124.53;;;18.71;40.47
66479;BME280;53294;47.912;13.526;2024-03-02T11:23:16;95117.50;;;18.70;40.86
66479;BME280;53294;47.912;13.526;2024-03-02T11:25:43;95097.34;;;19.15;39.96
66479;BME280;53294;47.912;13.526;2024-03-02T11:28:10;95106.22;;;18.68;41.09
66479;BME280;53294;47.912;13.526;2024-03-02T11:33:08;95100.28;;;18.21;42.88
66479;BME280;53294;47.912;13.526;2024-03-02T11:35:44;95098.13;;;18.37;42.26
66479;BME280;53294;47.912;13.526;2024-03-02T11:38:15;95091.00;;;19.00;40.18
66479;BME280;53294;47.912;13.526;2024-03-02T11:40:42;95078.91;;;19.46;39.20
66479;BME280;53294;47.912;13.526;2024-03-02T11:43:09;95078.78;;;19.87;38.80
66479;BME280;53294;47.912;13.526;2024-03-02T11:45:37;95066.41;;;19.42;38.84
66479;BME280;53294;47.912;13.526;2024-03-02T11:48:14;95077.59;;;18.06;42.11
66479;BME280;53294;47.912;13.526;2024-03-02T11:50:50;95078.50;;;17.56;42.99
66479;BME280;53294;47.912;13.526;2024-03-02T11:53:18;95074.91;;;16.76;44.49
66479;BME280;53294;47.912;13.526;2024-03-02T11:55:45;95069.25;;;17.08;45.49
66479;BME280;53294;47.912;13.526;2024-03-02T11:58:16;95057.75;;;17.71;43.48
66479;BME280;53294;47.912;13.526;2024-03-02T12:00:54;95055.84;;;17.45;43.95
66479;BME280;53294;47.912;13.526;2024-03-02T12:03:23;95050.56;;;16.79;45.08
66479;BME280;53294;47.912;13.526;2024-03-02T12:05:55;95058.94;;;16.71;46.10
66479;BME280;53294;47.912;13.526;2024-03-02T12:08:22;95058.28;;;16.77;45.87
66479;BME280;53294;47.912;13.526;2024-03-02T12:10:58;95056.19;;;16.90;45.54
66479;BME280;53294;47.912;13.526;2024-03-02T12:13:25;95056.97;;;17.14;45.04
66479;BME280;53294;47.912;13.526;2024-03-02T12:15:55;95048.78;;;16.87;45.39
66479;BME280;53294;47.912;13.526;2024-03-02T12:18:25;95051.28;;;16.76;45.47
66479;BME280;53294;47.912;13.526;2024-03-02T12:20:53;95049.16;;;16.20;47.31
66479;BME280;53294;47.912;13.526;2024-03-02T12:23:24;95052.34;;;16.25;46.60
66479;BME280;53294;47.912;13.526;2024-03-02T12:25:51;95051.53;;;16.44;46.70
66479;BME280;53294;47.912;13.526;2024-03-02T12:28:19;95038.91;;;16.32;46.28
66479;BME280;53294;47.912;13.526;2024-03-02T12:30:46;95049.81;;;15.93;47.49
66479;BME280;53294;47.912;13.526;2024-03-02T12:33:14;95045.41;;;15.85;47.35
66479;BME280;53294;47.912;13.526;2024-03-02T12:35:41;95052.63;;;15.61;49.98
66479;BME280;53294;47.912;13.526;2024-03-02T12:38:09;95042.75;;;15.34;49.22
66479;BME280;53294;47.912;13.526;2024-03-02T12:40:37;95044.88;;;15.24;49.83
66479;BME280;53294;47.912;13.526;2024-03-02T12:43:05;95043.44;;;14.95;50.69
66479;BME280;53294;47.912;13.526;2024-03-02T12:45:32;95040.88;;;15.18;50.37
66479;BME280;53294;47.912;13.526;2024-03-02T12:48:00;95037.34;;;15.34;49.88
66479;BME280;53294;47.912;13.526;2024-03-02T12:50:27;95032.00;;;15.37;49.86
66479;BME280;53294;47.912;13.526;2024-03-02T12:52:54;95028.63;;;15.24;50.49
66479;BME280;53294;47.912;13.526;2024-03-02T12:55:23;95035.56;;;15.06;51.02
66479;BME280;53294;47.912;13.526;2024-03-02T12:57:51;95040.63;;;15.07;51.01
66479;BME280;53294;47.912;13.526;2024-03-02T13:00:20;95026.13;;;15.16;50.92
66479;BME280;53294;47.912;13.526;2024-03-02T13:02:48;95021.66;;;15.23;50.52
66479;BME280;53294;47.912;13.526;2024-03-02T13:05:15;95026.88;;;15.52;49.89
66479;BME280;53294;47.912;13.526;2024-03-02T13:07:42;95028.66;;;15.44;50.25
66479;BME280;53294;47.912;13.526;2024-03-02T13:10:09;95024.63;;;15.73;50.35